Time;durP1;ratioP1;P1;durP2;ratioP2;P2;SDS_P1;SDS_P2;PMS_P1;PMS_P2;Temp;Humidity;BMP_temperature;BMP_pressure;BME280_temperature;BME280_humidity;BME280_pressure;Samples;Min_cycle;Max_cycle;Signal;HPM_P1;HPM_P2
2022/02/25 00:00:46;;;;;;;3.10;1.40;;;4.80;94.80;;;;;;4990100;28;20188;-90
2022/02/25 00:03:15;;;;;;;2.60;1.43;;;4.80;93.00;;;;;;5023626;28;20205;-90
2022/02/25 00:05:42;;;;;;;2.00;1.60;;;4.80;91.40;;;;;;5023180;28;20261;-91
2022/02/25 00:08:08;;;;;;;7.93;3.67;;;4.70;90.00;;;;;;5000779;28;20252;-90
2022/02/25 00:10:35;;;;;;;4.10;1.60;;;4.70;88.10;;;;;;5015320;28;20181;-90
2022/02/25 00:13:00;;;;;;;6.17;1.83;;;4.70;87.80;;;;;;5008315;28;20228;-90
2022/02/25 00:15:26;;;;;;;2.40;1.70;;;4.70;87.20;;;;;;5020165;28;20213;-91
2022/02/25 00:17:53;;;;;;;2.70;1.60;;;4.70;86.00;;;;;;5004152;28;20193;-90
2022/02/25 00:20:18;;;;;;;1.50;1.40;;;4.60;85.20;;;;;;5004816;28;20194;-92
2022/02/25 00:22:44;;;;;;;2.37;1.70;;;4.60;85.10;;;;;;5005655;28;20212;-90
2022/02/25 00:25:11;;;;;;;1.70;1.47;;;4.60;85.40;;;;;;5021012;28;20278;-91
2022/02/25 00:27:43;;;;;;;2.40;2.20;;;4.60;86.40;;;;;;5021658;28;20900;-91
2022/02/25 00:30:11;;;;;;;1.60;1.40;;;4.60;87.40;;;;;;5013756;28;20650;-90
2022/02/25 00:32:37;;;;;;;2.77;1.70;;;4.60;88.20;;;;;;5021914;28;20197;-90
2022/02/25 00:35:03;;;;;;;2.00;1.73;;;4.40;89.10;;;;;;5004775;28;20268;-91
2022/02/25 00:37:29;;;;;;;4.03;1.73;;;4.40;90.10;;;;;;5028824;28;20193;-90
2022/02/25 00:39:55;;;;;;;2.37;1.70;;;4.30;90.10;;;;;;5040418;28;20185;-92
2022/02/25 00:42:20;;;;;;;2.57;1.53;;;4.30;89.60;;;;;;5045881;28;20259;-91
2022/02/25 00:44:46;;;;;;;2.63;1.57;;;4.20;88.20;;;;;;5020413;28;20216;-91
2022/02/25 00:47:12;;;;;;;4.10;1.83;;;4.30;90.30;;;;;;5021421;28;20541;-90
2022/02/25 00:49:38;;;;;;;3.00;1.60;;;4.30;88.80;;;;;;5019601;28;20194;-91
2022/02/25 00:52:04;;;;;;;2.60;1.50;;;4.30;87.50;;;;;;5001265;28;20181;-91
2022/02/25 00:54:30;;;;;;;3.07;1.17;;;4.20;87.70;;;;;;5019512;28;20205;-91
2022/02/25 00:56:56;;;;;;;1.60;1.50;;;4.10;87.90;;;;;;5020485;28;20194;-92
2022/02/25 00:59:22;;;;;;;2.23;1.50;;;4.10;88.20;;;;;;5020799;28;20239;-91
2022/02/25 01:01:47;;;;;;;3.20;1.50;;;4.00;89.30;;;;;;5019828;28;20205;-91
2022/02/25 01:04:14;;;;;;;5.60;1.80;;;4.00;88.80;;;;;;5007919;28;20205;-90
2022/02/25 01:06:40;;;;;;;2.83;1.50;;;4.00;89.20;;;;;;5014607;28;20732;-89
2022/02/25 01:09:06;;;;;;;4.33;1.90;;;3.90;89.40;;;;;;4986930;28;20182;-91
2022/02/25 01:11:32;;;;;;;1.43;1.33;;;3.90;90.10;;;;;;5016457;28;20556;-90
2022/02/25 01:13:58;;;;;;;2.20;1.40;;;3.90;89.50;;;;;;5028396;28;20209;-90
2022/02/25 01:16:23;;;;;;;3.27;1.70;;;3.80;90.10;;;;;;4995974;28;20201;-90
2022/02/25 01:18:49;;;;;;;3.40;1.40;;;3.80;89.70;;;;;;5019665;28;20220;-90
2022/02/25 01:21:15;;;;;;;2.63;1.40;;;3.80;89.80;;;;;;5008220;28;20227;-90
2022/02/25 01:23:40;;;;;;;3.43;1.53;;;3.70;90.30;;;;;;5004209;28;20182;-90
2022/02/25 01:26:06;;;;;;;5.03;1.87;;;3.70;90.40;;;;;;5014184;28;20220;-91
2022/02/25 01:28:35;;;;;;;2.03;1.03;;;3.70;90.80;;;;;;5007281;28;20233;-91
2022/02/25 01:31:02;;;;;;;3.23;1.60;;;3.60;90.60;;;;;;5020685;28;20205;-90
2022/02/25 01:33:28;;;;;;;2.60;1.40;;;3.70;90.10;;;;;;5021418;28;20224;-90
2022/02/25 01:35:54;;;;;;;5.60;1.57;;;3.70;91.00;;;;;;4976327;28;20257;-91
2022/02/25 01:38:20;;;;;;;4.47;1.47;;;3.70;90.70;;;;;;5010601;28;20285;-90
2022/02/25 01:40:46;;;;;;;1.97;1.37;;;3.60;91.90;;;;;;4987413;28;20218;-90
2022/02/25 01:43:11;;;;;;;3.93;1.60;;;3.60;92.20;;;;;;5019473;28;20198;-90
2022/02/25 01:45:37;;;;;;;4.93;2.00;;;3.60;92.30;;;;;;5004303;28;20298;-90
2022/02/25 01:48:04;;;;;;;2.87;1.50;;;3.60;92.50;;;;;;5003904;28;20526;-90
2022/02/25 01:50:30;;;;;;;2.80;1.73;;;3.60;92.40;;;;;;5005556;28;20186;-90
2022/02/25 01:53:01;;;;;;;3.07;1.53;;;3.60;92.70;;;;;;5006129;28;20196;-91
2022/02/25 01:55:31;;;;;;;2.90;1.37;;;3.60;92.50;;;;;;5004830;28;20249;-90
2022/02/25 01:57:58;;;;;;;4.10;1.43;;;3.60;93.90;;;;;;5020920;28;20193;-92
2022/02/25 02:00:25;;;;;;;4.63;1.80;;;3.50;93.90;;;;;;5022161;28;20316;-90
2022/02/25 02:02:51;;;;;;;6.57;1.53;;;3.50;93.60;;;;;;5008177;28;20209;-91
2022/02/25 02:05:17;;;;;;;2.20;1.37;;;3.60;93.90;;;;;;5003116;28;20910;-91
2022/02/25 02:07:44;;;;;;;4.53;1.33;;;3.50;93.50;;;;;;5004443;28;20178;-90
2022/02/25 02:10:10;;;;;;;2.93;1.53;;;3.40;94.00;;;;;;5023644;28;20189;-92
2022/02/25 02:12:37;;;;;;;3.43;1.70;;;3.40;94.40;;;;;;5004764;28;20193;-90
2022/02/25 02:15:04;;;;;;;3.10;1.97;;;3.30;95.10;;;;;;5021705;28;20205;-90
2022/02/25 02:17:31;;;;;;;4.67;1.63;;;3.20;95.10;;;;;;5020396;28;20201;-91
2022/02/25 02:19:57;;;;;;;4.00;1.60;;;3.20;95.30;;;;;;5021297;28;20249;-90
2022/02/25 02:22:24;;;;;;;4.10;1.80;;;3.30;95.10;;;;;;5002445;28;20201;-90
2022/02/25 02:24:50;;;;;;;6.70;1.87;;;3.10;95.60;;;;;;4995858;28;20649;-90
2022/02/25 02:27:16;;;;;;;5.67;1.77;;;3.20;95.10;;;;;;5003902;28;20205;-90
2022/02/25 02:29:42;;;;;;;3.80;1.60;;;3.20;95.30;;;;;;5002229;28;20381;-90
2022/02/25 02:32:09;;;;;;;3.60;2.00;;;3.20;94.90;;;;;;5018044;28;20198;-91
2022/02/25 02:34:35;;;;;;;2.23;1.53;;;3.20;94.90;;;;;;5014809;28;20205;-91
2022/02/25 02:37:00;;;;;;;5.83;1.60;;;3.20;95.10;;;;;;5004268;28;20209;-91
2022/02/25 02:39:26;;;;;;;6.63;1.90;;;3.10;95.60;;;;;;5018144;28;20199;-91
2022/02/25 02:41:52;;;;;;;9.87;1.70;;;3.10;96.00;;;;;;4999046;28;20277;-91
2022/02/25 02:44:18;;;;;;;2.30;1.43;;;3.00;96.30;;;;;;5019276;28;20213;-91
2022/02/25 02:46:43;;;;;;;3.27;1.33;;;2.90;97.00;;;;;;4970424;28;20190;-90
2022/02/25 02:49:09;;;;;;;3.13;1.63;;;2.80;97.60;;;;;;5019918;28;20182;-91
2022/02/25 02:51:36;;;;;;;2.90;1.73;;;2.70;98.10;;;;;;5002060;28;20202;-90
2022/02/25 02:54:01;;;;;;;6.83;1.90;;;2.80;97.90;;;;;;5009188;28;20205;-90
2022/02/25 02:56:27;;;;;;;5.30;1.70;;;2.80;97.80;;;;;;5019513;28;20688;-90
2022/02/25 02:58:56;;;;;;;6.10;1.97;;;2.90;97.90;;;;;;5002557;28;20193;-91
2022/02/25 03:01:28;;;;;;;3.40;1.80;;;2.90;97.40;;;;;;5006927;28;20190;-90
2022/02/25 03:03:54;;;;;;;4.77;2.77;;;2.90;97.10;;;;;;5003652;28;20214;-90
2022/02/25 03:06:20;;;;;;;6.87;1.80;;;2.70;98.10;;;;;;5021797;28;20193;-90
2022/02/25 03:08:46;;;;;;;6.83;2.03;;;2.70;98.80;;;;;;5035529;28;20212;-90
2022/02/25 03:11:13;;;;;;;5.13;2.27;;;2.70;98.60;;;;;;5026604;28;20216;-92
2022/02/25 03:13:39;;;;;;;5.70;2.53;;;2.60;98.60;;;;;;5012024;28;20202;-90
2022/02/25 03:16:05;;;;;;;5.73;2.57;;;2.80;98.20;;;;;;5012204;28;20189;-91
2022/02/25 03:18:31;;;;;;;5.07;1.77;;;2.80;98.60;;;;;;5009861;28;20181;-91
2022/02/25 03:20:57;;;;;;;5.03;2.20;;;2.80;98.40;;;;;;4980387;28;1265111;-91
2022/02/25 03:23:22;;;;;;;6.30;2.07;;;2.90;98.30;;;;;;5030170;28;20216;-90
2022/02/25 03:25:48;;;;;;;4.30;1.70;;;2.90;97.50;;;;;;5023038;28;20263;-90
2022/02/25 03:28:14;;;;;;;5.23;1.90;;;2.90;98.00;;;;;;4995904;28;20189;-90
2022/02/25 03:30:40;;;;;;;4.67;1.70;;;2.80;98.20;;;;;;5022902;28;20208;-90
2022/02/25 03:33:06;;;;;;;5.43;1.80;;;2.70;98.80;;;;;;5006442;28;20192;-90
2022/02/25 03:35:33;;;;;;;7.03;2.37;;;2.60;99.70;;;;;;5010307;28;20217;-91
2022/02/25 03:37:59;;;;;;;4.57;2.40;;;2.60;99.40;;;;;;5016582;28;20181;-91
2022/02/25 03:40:27;;;;;;;6.43;2.37;;;2.70;99.30;;;;;;5024298;28;20591;-92
2022/02/25 03:42:54;;;;;;;5.50;2.27;;;2.60;99.50;;;;;;5026037;28;20196;-92
2022/02/25 03:45:20;;;;;;;5.43;2.20;;;2.60;99.60;;;;;;5013969;28;20729;-92
2022/02/25 03:47:45;;;;;;;6.63;1.93;;;2.60;99.60;;;;;;5008413;28;20201;-91
2022/02/25 03:50:11;;;;;;;6.93;2.27;;;2.60;99.40;;;;;;5025504;28;20183;-91
2022/02/25 03:52:37;;;;;;;5.87;1.90;;;2.70;98.70;;;;;;5029172;28;20174;-92
2022/02/25 03:55:05;;;;;;;7.17;2.40;;;2.80;98.00;;;;;;5008272;28;20233;-92
2022/02/25 03:57:31;;;;;;;5.83;1.80;;;2.70;98.60;;;;;;5020465;28;20185;-91
2022/02/25 03:59:57;;;;;;;4.87;2.20;;;2.60;99.60;;;;;;4992670;28;20186;-90
2022/02/25 04:02:23;;;;;;;2.20;1.50;;;2.70;98.60;;;;;;5005502;28;20201;-91
2022/02/25 04:04:48;;;;;;;9.57;2.63;;;2.70;99.10;;;;;;5005261;28;20214;-91
2022/02/25 04:07:15;;;;;;;5.10;2.23;;;2.80;98.20;;;;;;4988717;28;20194;-91
2022/02/25 04:09:41;;;;;;;6.47;2.43;;;2.80;98.30;;;;;;5016088;28;20182;-91
2022/02/25 04:12:07;;;;;;;5.57;2.17;;;2.90;97.90;;;;;;4992004;28;20247;-90
2022/02/25 04:14:33;;;;;;;7.87;2.57;;;2.80;98.30;;;;;;5023365;28;20239;-90
2022/02/25 04:16:59;;;;;;;12.20;2.40;;;2.80;98.50;;;;;;5015793;28;20201;-90
2022/02/25 04:19:25;;;;;;;6.70;2.63;;;2.80;98.60;;;;;;4994612;28;20188;-90
2022/02/25 04:21:50;;;;;;;7.53;2.03;;;2.80;98.70;;;;;;5043492;28;20197;-91
2022/02/25 04:24:16;;;;;;;5.73;2.10;;;2.80;98.50;;;;;;5034658;28;20209;-91
2022/02/25 04:26:42;;;;;;;7.43;2.90;;;2.80;98.40;;;;;;4998577;28;20205;-90
2022/02/25 04:29:08;;;;;;;8.87;3.50;;;2.80;99.00;;;;;;5027852;28;20177;-90
2022/02/25 04:31:34;;;;;;;8.03;2.13;;;2.80;98.70;;;;;;4994800;28;20258;-91
2022/02/25 04:34:00;;;;;;;5.87;1.80;;;2.90;98.30;;;;;;5032545;28;20699;-91
2022/02/25 04:36:26;;;;;;;15.43;8.87;;;2.90;98.60;;;;;;4991795;28;20209;-89
2022/02/25 04:38:53;;;;;;;6.30;2.23;;;2.90;98.10;;;;;;5007620;28;20185;-91
2022/02/25 04:41:20;;;;;;;4.83;2.10;;;3.00;97.80;;;;;;5013678;28;20191;-91
2022/02/25 04:43:45;;;;;;;7.37;2.30;;;2.90;98.10;;;;;;5012624;28;20182;-91
2022/02/25 04:46:16;;;;;;;7.60;2.40;;;2.80;98.30;;;;;;5023197;28;20266;-91
2022/02/25 04:48:42;;;;;;;5.97;2.50;;;2.80;98.60;;;;;;5017946;28;20244;-90
2022/02/25 04:51:08;;;;;;;11.07;2.57;;;2.80;98.70;;;;;;5010034;28;20660;-91
2022/02/25 04:53:33;;;;;;;4.33;2.13;;;2.90;98.40;;;;;;5007075;28;20186;-90
2022/02/25 04:55:59;;;;;;;5.63;2.37;;;2.90;98.00;;;;;;5004427;28;20194;-91
2022/02/25 04:58:25;;;;;;;8.97;2.20;;;2.90;97.90;;;;;;5031961;28;20185;-92
2022/02/25 05:00:51;;;;;;;3.33;2.00;;;2.80;97.90;;;;;;5011739;28;20196;-91
2022/02/25 05:03:17;;;;;;;7.70;2.23;;;2.70;98.40;;;;;;5019524;28;20181;-92
2022/02/25 05:05:43;;;;;;;8.23;2.53;;;2.70;99.00;;;;;;4977061;28;20233;-91
2022/02/25 05:08:09;;;;;;;5.87;2.30;;;2.60;99.80;;;;;;5026461;28;20185;-92
2022/02/25 05:10:35;;;;;;;5.50;2.60;;;2.70;98.40;;;;;;4994224;28;20211;-91
2022/02/25 05:13:01;;;;;;;5.30;2.23;;;2.80;98.10;;;;;;5017356;28;20181;-91
2022/02/25 05:20:56;;;;;;;4.40;2.40;;;2.70;98.60;;;;;;5012287;28;20663;-91
2022/02/25 05:23:22;;;;;;;5.23;2.30;;;2.70;97.90;;;;;;4993901;28;20182;-91
2022/02/25 05:25:48;;;;;;;7.37;2.60;;;2.60;98.50;;;;;;5025418;28;20249;-92
2022/02/25 05:28:14;;;;;;;8.23;2.77;;;2.60;98.50;;;;;;5021501;28;20189;-91
2022/02/25 05:30:42;;;;;;;4.67;2.70;;;2.60;98.60;;;;;;5008343;28;20201;-91
2022/02/25 05:33:08;;;;;;;7.70;2.67;;;2.60;99.20;;;;;;5024178;28;20221;-92
2022/02/25 05:35:34;;;;;;;7.70;2.60;;;2.50;99.00;;;;;;4992206;28;20213;-92
2022/02/25 05:38:00;;;;;;;5.80;2.80;;;2.40;99.50;;;;;;5025357;28;20185;-91
2022/02/25 05:40:26;;;;;;;8.23;2.80;;;2.50;99.60;;;;;;4991646;28;20603;-91
2022/02/25 05:42:52;;;;;;;10.13;3.13;;;2.50;99.70;;;;;;5026719;28;20177;-91
2022/02/25 05:45:18;;;;;;;8.47;2.63;;;2.50;98.90;;;;;;5012619;28;20696;-91
2022/02/25 05:47:45;;;;;;;7.23;3.00;;;2.40;99.20;;;;;;5028750;28;20203;-92
2022/02/25 05:50:18;;;;;;;6.83;2.70;;;2.40;99.00;;;;;;5048946;28;20176;-92
2022/02/25 05:52:45;;;;;;;5.53;2.57;;;2.40;99.80;;;;;;5005695;28;20235;-92
2022/02/25 05:55:11;;;;;;;9.07;3.23;;;2.40;99.50;;;;;;5020982;28;20414;-92
2022/02/25 05:57:37;;;;;;;6.57;2.47;;;2.30;99.90;;;;;;5010643;28;20181;-91
2022/02/25 06:00:09;;;;;;;5.60;2.53;;;2.40;99.60;;;;;;5024547;28;20192;-90
2022/02/25 06:02:35;;;;;;;5.33;2.57;;;2.40;98.70;;;;;;5027236;28;20250;-89
2022/02/25 06:05:02;;;;;;;4.87;2.70;;;2.50;98.80;;;;;;5009473;28;20214;-90
2022/02/25 06:07:29;;;;;;;8.37;2.73;;;2.50;99.00;;;;;;5026056;28;20670;-91
2022/02/25 06:09:55;;;;;;;8.53;2.70;;;2.40;98.90;;;;;;5007227;28;20181;-92
2022/02/25 06:12:21;;;;;;;6.93;2.53;;;2.50;98.80;;;;;;5024696;28;20174;-92
2022/02/25 06:14:47;;;;;;;5.37;2.57;;;2.40;99.20;;;;;;4992467;28;20225;-93
2022/02/25 06:17:13;;;;;;;6.37;2.70;;;2.40;99.60;;;;;;5007924;28;20204;-92
2022/02/25 06:19:39;;;;;;;11.77;3.00;;;2.30;99.90;;;;;;5005597;28;20246;-92
2022/02/25 06:22:05;;;;;;;6.17;3.27;;;2.30;99.90;;;;;;5025500;28;20212;-92
2022/02/25 06:24:31;;;;;;;6.83;2.77;;;2.40;99.90;;;;;;5024147;28;20217;-93
2022/02/25 06:26:57;;;;;;;5.43;2.70;;;2.40;99.90;;;;;;5007703;28;20194;-92
2022/02/25 06:29:23;;;;;;;7.93;3.03;;;2.50;99.90;;;;;;5011877;28;20205;-92
2022/02/25 06:31:49;;;;;;;9.07;3.43;;;2.40;99.70;;;;;;5043385;28;20181;-92
2022/02/25 06:34:15;;;;;;;8.47;2.50;;;2.50;99.70;;;;;;5025689;28;20229;-92
2022/02/25 06:36:41;;;;;;;9.27;2.60;;;2.50;99.30;;;;;;5007299;28;20271;-92
2022/02/25 06:39:08;;;;;;;4.03;2.70;;;2.50;99.90;;;;;;5008285;28;20200;-92
2022/02/25 06:41:34;;;;;;;4.73;2.37;;;2.50;99.00;;;;;;5041767;28;20189;-92
2022/02/25 06:44:00;;;;;;;7.77;3.10;;;2.50;99.20;;;;;;5021339;28;20208;-93
2022/02/25 06:46:26;;;;;;;5.90;2.40;;;2.50;99.90;;;;;;5017879;28;20691;-92
2022/02/25 06:48:52;;;;;;;8.17;2.60;;;2.50;99.90;;;;;;5031787;28;20184;-92
2022/02/25 06:51:18;;;;;;;3.50;2.40;;;2.70;98.70;;;;;;5016490;28;20196;-92
2022/02/25 06:53:44;;;;;;;5.70;2.50;;;2.70;97.90;;;;;;5013553;28;20181;-92
2022/02/25 06:56:10;;;;;;;5.87;2.73;;;2.70;98.10;;;;;;5027433;28;20745;-93
2022/02/25 06:58:36;;;;;;;6.27;3.07;;;2.60;98.40;;;;;;5009363;28;20190;-92
2022/02/25 07:01:05;;;;;;;8.37;2.53;;;2.60;99.40;;;;;;5009105;28;20433;-92
2022/02/25 07:03:31;;;;;;;9.83;2.97;;;2.60;99.80;;;;;;5015329;28;20186;-92
2022/02/25 07:05:57;;;;;;;8.43;2.50;;;2.60;99.90;;;;;;4994669;28;20213;-93
2022/02/25 07:08:24;;;;;;;4.70;2.50;;;2.60;99.50;;;;;;5028081;28;20178;-93
2022/02/25 07:10:51;;;;;;;8.77;2.60;;;2.60;99.60;;;;;;5010510;28;20195;-92
2022/02/25 07:13:19;;;;;;;7.50;2.97;;;2.60;99.80;;;;;;5027626;28;20178;-92
2022/02/25 07:15:46;;;;;;;8.20;3.10;;;2.60;99.90;;;;;;5027578;28;20240;-92
2022/02/25 07:18:15;;;;;;;6.50;3.17;;;2.60;99.90;;;;;;5026038;28;20181;-94
2022/02/25 07:20:44;;;;;;;6.90;3.23;;;2.60;99.80;;;;;;5029221;28;20177;-91
2022/02/25 07:23:11;;;;;;;11.00;3.30;;;2.70;99.30;;;;;;5012025;28;20209;-90
2022/02/25 07:25:37;;;;;;;7.20;2.73;;;2.90;98.70;;;;;;5012052;28;20208;-90
2022/02/25 07:28:04;;;;;;;9.67;3.13;;;2.90;98.40;;;;;;5001101;28;20207;-90
2022/02/25 07:30:31;;;;;;;9.57;3.10;;;3.00;98.30;;;;;;5014384;28;20182;-91
2022/02/25 07:32:57;;;;;;;5.27;3.30;;;2.80;98.60;;;;;;5028295;28;20200;-92
2022/02/25 07:35:23;;;;;;;5.17;2.50;;;2.80;98.40;;;;;;5029294;28;20206;-92
2022/02/25 07:37:49;;;;;;;7.60;2.70;;;3.00;96.60;;;;;;5029710;28;20190;-93
2022/02/25 07:40:15;;;;;;;5.07;2.73;;;3.10;97.10;;;;;;5011694;28;20193;-93
2022/02/25 07:42:42;;;;;;;6.33;2.90;;;3.00;96.80;;;;;;5014294;28;20204;-92
2022/02/25 07:45:09;;;;;;;6.67;2.90;;;3.10;96.80;;;;;;5039054;28;20260;-92
2022/02/25 07:47:35;;;;;;;9.07;2.97;;;3.10;97.40;;;;;;5016514;28;20274;-92
2022/02/25 07:50:01;;;;;;;7.43;2.60;;;3.10;97.80;;;;;;4999406;28;20201;-91
2022/02/25 07:52:27;;;;;;;8.60;3.40;;;3.20;97.50;;;;;;5032280;28;20200;-90
2022/02/25 07:54:53;;;;;;;6.63;2.50;;;3.30;95.80;;;;;;5015594;28;20679;-92
2022/02/25 07:57:20;;;;;;;4.63;2.50;;;3.30;96.40;;;;;;5048667;28;20192;-91
2022/02/25 07:59:47;;;;;;;8.37;2.47;;;3.40;95.20;;;;;;5032810;28;20571;-90
2022/02/25 08:02:13;;;;;;;7.93;2.90;;;3.50;94.30;;;;;;5035767;28;20200;-91
2022/02/25 08:04:39;;;;;;;6.03;2.80;;;3.60;94.40;;;;;;5058989;28;20197;-91
2022/02/25 08:07:05;;;;;;;5.73;2.40;;;3.70;94.30;;;;;;5043559;28;20200;-92
2022/02/25 08:09:31;;;;;;;11.67;3.50;;;3.70;95.40;;;;;;5001334;28;20197;-91
2022/02/25 08:11:57;;;;;;;8.17;3.40;;;3.70;94.40;;;;;;5027203;28;20788;-91
2022/02/25 08:14:22;;;;;;;5.53;2.73;;;3.80;93.90;;;;;;4993033;28;20211;-91
2022/02/25 08:16:48;;;;;;;12.00;2.87;;;3.60;95.30;;;;;;5026964;28;20182;-90
2022/02/25 08:19:14;;;;;;;6.57;4.00;;;3.60;94.90;;;;;;5009888;28;20185;-90
2022/02/25 08:21:43;;;;;;;8.47;2.73;;;3.60;94.40;;;;;;5011212;28;20206;-90
2022/02/25 08:24:09;;;;;;;7.07;2.77;;;3.70;94.10;;;;;;5019243;28;20205;-91
2022/02/25 08:26:35;;;;;;;5.83;2.87;;;3.70;93.70;;;;;;5010580;28;20235;-91
2022/02/25 08:29:01;;;;;;;5.23;2.30;;;3.70;94.20;;;;;;5009320;28;20274;-91
2022/02/25 08:31:27;;;;;;;5.90;2.97;;;3.90;94.30;;;;;;5019671;28;20194;-90
2022/02/25 08:33:53;;;;;;;5.57;2.70;;;4.10;93.80;;;;;;5025350;28;20204;-90
2022/02/25 08:36:20;;;;;;;5.40;2.73;;;4.10;92.90;;;;;;5026209;28;20217;-90
2022/02/25 08:38:46;;;;;;;5.33;2.43;;;4.10;93.80;;;;;;5011841;28;20200;-89
2022/02/25 08:41:12;;;;;;;7.97;3.23;;;4.20;92.80;;;;;;5027731;28;20198;-90
2022/02/25 08:43:38;;;;;;;9.60;5.27;;;4.30;92.80;;;;;;5023846;28;20181;-91
2022/02/25 08:46:05;;;;;;;4.50;2.30;;;4.30;90.60;;;;;;5013726;28;20260;-90
2022/02/25 08:48:31;;;;;;;7.77;3.00;;;4.50;88.80;;;;;;5026029;28;20190;-89
2022/02/25 08:50:57;;;;;;;8.10;2.57;;;4.70;87.70;;;;;;5025101;28;20656;-86
2022/02/25 08:53:24;;;;;;;6.87;2.77;;;4.90;87.10;;;;;;5014598;28;20276;-87
2022/02/25 08:55:50;;;;;;;5.50;2.53;;;4.80;88.50;;;;;;5031278;28;20217;-85
2022/02/25 08:58:16;;;;;;;4.83;2.80;;;4.90;86.50;;;;;;5009454;28;20194;-87
2022/02/25 09:00:42;;;;;;;10.37;3.30;;;4.70;88.40;;;;;;5026221;28;20332;-85
2022/02/25 09:03:08;;;;;;;9.87;3.17;;;4.80;86.80;;;;;;5027058;28;20221;-88
2022/02/25 09:05:34;;;;;;;8.17;3.20;;;4.90;85.60;;;;;;5036283;28;20208;-88
2022/02/25 09:08:00;;;;;;;8.57;3.10;;;4.90;87.50;;;;;;5016896;28;20215;-89
2022/02/25 09:10:26;;;;;;;6.23;2.90;;;5.10;87.50;;;;;;5032274;28;20208;-91
2022/02/25 09:12:52;;;;;;;8.30;3.20;;;5.00;87.80;;;;;;5032136;28;20606;-91
2022/02/25 09:15:25;;;;;;;13.20;3.43;;;5.10;86.00;;;;;;5016791;28;20244;-91
2022/02/25 09:17:56;;;;;;;8.13;3.17;;;5.00;87.30;;;;;;5009520;28;20189;-91
2022/02/25 09:20:23;;;;;;;8.77;2.60;;;5.30;87.00;;;;;;5018297;28;20261;-91
2022/02/25 09:22:50;;;;;;;9.00;2.70;;;5.30;84.30;;;;;;5013172;28;20228;-91
2022/02/25 09:25:16;;;;;;;3.97;2.43;;;5.30;86.00;;;;;;5024247;28;20296;-90
2022/02/25 09:27:42;;;;;;;6.23;2.93;;;5.50;86.70;;;;;;5009800;28;20248;-91
2022/02/25 09:30:10;;;;;;;5.30;3.17;;;5.50;84.90;;;;;;5009990;28;20197;-91
2022/02/25 09:32:37;;;;;;;8.23;2.50;;;5.30;84.20;;;;;;5026034;28;20173;-91
2022/02/25 09:35:04;;;;;;;7.97;3.27;;;5.40;86.60;;;;;;5008924;28;20206;-90
2022/02/25 09:37:34;;;;;;;10.40;3.37;;;5.50;83.60;;;;;;5026254;28;20201;-90
2022/02/25 09:39:59;;;;;;;13.07;3.63;;;5.60;83.60;;;;;;5010205;28;20266;-93
2022/02/25 09:42:25;;;;;;;8.27;3.10;;;5.70;85.00;;;;;;5007276;28;20174;-91
2022/02/25 09:44:51;;;;;;;10.90;3.23;;;5.70;82.40;;;;;;5024614;28;20201;-92
2022/02/25 09:47:18;;;;;;;8.97;3.13;;;5.60;84.00;;;;;;5007424;28;20217;-90
2022/02/25 09:49:44;;;;;;;7.70;2.97;;;5.60;82.00;;;;;;5006161;28;20196;-91
2022/02/25 09:52:15;;;;;;;10.37;3.30;;;5.70;84.20;;;;;;5000583;28;20190;-91
2022/02/25 09:54:41;;;;;;;6.23;2.80;;;5.70;82.30;;;;;;5005214;28;20206;-90
2022/02/25 09:57:07;;;;;;;7.63;3.20;;;5.90;81.40;;;;;;5003805;28;20202;-91
2022/02/25 09:59:34;;;;;;;10.07;3.67;;;5.70;83.50;;;;;;5014430;28;20194;-89
2022/02/25 10:02:05;;;;;;;6.40;2.90;;;5.90;81.10;;;;;;5009107;28;20220;-88
2022/02/25 10:04:31;;;;;;;8.60;3.37;;;6.00;83.10;;;;;;5024018;28;20221;-89
2022/02/25 10:06:58;;;;;;;7.87;3.03;;;6.20;81.20;;;;;;5005862;28;20189;-88
2022/02/25 10:09:34;;;;;;;9.13;3.17;;;6.50;79.70;;;;;;5006989;28;20202;-90
2022/02/25 10:12:09;;;;;;;5.47;2.77;;;6.60;80.80;;;;;;5009611;28;20162;-89
2022/02/25 10:14:40;;;;;;;11.00;3.43;;;6.80;79.20;;;;;;5024439;28;20201;-94
2022/02/25 10:17:23;;;;;;;8.10;3.07;;;6.80;77.10;;;;;;4973709;28;20178;-90
2022/02/25 10:19:55;;;;;;;9.57;3.17;;;6.80;74.20;;;;;;5024068;28;20632;-92
2022/02/25 10:22:36;;;;;;;7.40;2.90;;;7.00;79.50;;;;;;5025778;28;20205;-90
2022/02/25 10:25:10;;;;;;;13.77;3.47;;;7.20;76.30;;;;;;5024061;28;20231;-91
2022/02/25 10:27:43;;;;;;;6.30;3.07;;;7.00;76.00;;;;;;5024508;28;20203;-91
2022/02/25 10:30:15;;;;;;;10.27;3.73;;;7.00;77.80;;;;;;5016515;28;20178;-90
2022/02/25 10:32:43;;;;;;;7.17;3.30;;;7.10;75.80;;;;;;5034573;28;20150;-90
2022/02/25 10:35:21;;;;;;;12.27;3.47;;;6.90;76.60;;;;;;5035558;28;20213;-93
2022/02/25 10:38:20;;;;;;;6.77;3.60;;;6.80;74.90;;;;;;5030363;28;20185;-90
2022/02/25 10:40:55;;;;;;;12.87;3.63;;;7.00;76.80;;;;;;5023818;28;20170;-90
2022/02/25 10:43:26;;;;;;;6.37;3.20;;;6.60;77.10;;;;;;5015334;28;20191;-90
2022/02/25 10:45:58;;;;;;;7.40;3.23;;;6.60;77.40;;;;;;5035124;28;20432;-88
2022/02/25 10:48:29;;;;;;;6.83;2.87;;;6.60;77.00;;;;;;5037533;28;20174;-95
2022/02/25 10:51:00;;;;;;;8.50;2.90;;;6.50;79.20;;;;;;5036290;28;20184;-90
2022/02/25 10:53:30;;;;;;;13.77;3.60;;;6.60;77.50;;;;;;5036818;28;20169;-91
2022/02/25 10:56:11;;;;;;;8.40;2.70;;;6.70;76.80;;;;;;5032672;28;20198;-90
2022/02/25 10:58:41;;;;;;;8.40;2.90;;;6.80;77.30;;;;;;5021190;28;20201;-90
2022/02/25 11:01:08;;;;;;;7.17;2.80;;;6.70;76.20;;;;;;5032311;28;20186;-90
2022/02/25 11:03:34;;;;;;;8.67;3.00;;;6.80;77.30;;;;;;5029732;28;20218;-90
2022/02/25 11:06:00;;;;;;;7.37;3.17;;;7.00;75.60;;;;;;5031110;28;20213;-88
2022/02/25 11:08:26;;;;;;;6.83;3.27;;;7.10;74.10;;;;;;5008121;28;20197;-89
2022/02/25 11:10:53;;;;;;;7.80;2.93;;;7.10;74.50;;;;;;5022894;28;20201;-92
2022/02/25 11:13:20;;;;;;;5.83;2.53;;;6.70;74.50;;;;;;5025349;28;20233;-90
2022/02/25 11:15:46;;;;;;;10.23;3.20;;;6.80;74.10;;;;;;5025746;28;20231;-91
2022/02/25 11:18:12;;;;;;;11.63;3.07;;;6.80;75.90;;;;;;5004895;28;20225;-91
2022/02/25 11:20:43;;;;;;;7.70;3.20;;;6.80;74.10;;;;;;5023363;28;20423;-91
2022/02/25 11:23:11;;;;;;;8.10;3.23;;;6.70;74.30;;;;;;5009164;28;20340;-90
2022/02/25 11:25:39;;;;;;;8.23;3.03;;;6.60;76.50;;;;;;5013629;28;20225;-91
2022/02/25 11:28:06;;;;;;;7.00;3.03;;;6.60;78.10;;;;;;4998292;28;20248;-89
2022/02/25 11:30:54;;;;;;;9.10;3.20;;;6.70;74.00;;;;;;5038201;28;20193;-90
2022/02/25 11:33:22;;;;;;;11.47;3.27;;;6.70;75.50;;;;;;5022335;28;20206;-90
2022/02/25 11:35:52;;;;;;;10.33;2.90;;;6.70;74.90;;;;;;5016820;28;20311;-91
2022/02/25 11:38:29;;;;;;;7.07;2.97;;;6.80;75.70;;;;;;5028642;28;20244;-90
2022/02/25 11:41:05;;;;;;;6.80;2.97;;;6.80;76.90;;;;;;5025261;28;20189;-90
2022/02/25 11:43:32;;;;;;;6.90;4.43;;;6.80;74.40;;;;;;5029657;28;20197;-91
2022/02/25 11:45:57;;;;;;;7.23;2.97;;;7.00;73.70;;;;;;5032062;28;20224;-89
2022/02/25 11:48:25;;;;;;;6.03;3.00;;;7.00;73.80;;;;;;5030929;28;20202;-91
2022/02/25 11:50:55;;;;;;;7.03;3.03;;;7.30;74.50;;;;;;5032727;28;20189;-89
2022/02/25 11:53:22;;;;;;;7.07;2.57;;;7.60;70.40;;;;;;5033049;28;20189;-91
2022/02/25 11:55:49;;;;;;;7.17;3.00;;;7.50;69.70;;;;;;5013214;28;20221;-90
2022/02/25 11:58:46;;;;;;;9.53;3.00;;;7.70;67.20;;;;;;5034100;28;20248;-89
2022/02/25 12:01:22;;;;;;;5.93;2.43;;;7.50;70.40;;;;;;5011079;28;20204;-88
2022/02/25 12:04:14;;;;;;;4.47;2.97;;;7.50;68.80;;;;;;5008166;28;20197;-91
2022/02/25 12:07:00;;;;;;;10.47;2.83;;;7.50;66.90;;;;;;5020755;28;20224;-91
2022/02/25 12:09:38;;;;;;;8.57;2.60;;;7.40;66.40;;;;;;5025860;28;20210;-89
2022/02/25 12:12:22;;;;;;;6.07;2.20;;;7.20;67.50;;;;;;5026832;28;20198;-90
2022/02/25 12:14:58;;;;;;;7.00;2.20;;;7.00;69.40;;;;;;5010604;28;20243;-91
2022/02/25 12:17:51;;;;;;;6.53;2.40;;;7.00;68.50;;;;;;5028379;28;20197;-90
2022/02/25 12:20:22;;;;;;;7.03;2.50;;;7.10;67.80;;;;;;5024763;28;20208;-91
2022/02/25 12:22:57;;;;;;;10.40;2.90;;;7.20;68.20;;;;;;4993059;28;20212;-90
2022/02/25 12:25:41;;;;;;;6.30;2.27;;;7.20;67.20;;;;;;5034628;28;20230;-89
2022/02/25 12:28:31;;;;;;;8.13;3.13;;;7.20;66.90;;;;;;5031982;28;20189;-90
2022/02/25 12:31:09;;;;;;;8.60;4.00;;;7.20;65.90;;;;;;5006522;28;20196;-91
2022/02/25 12:33:39;;;;;;;7.33;3.03;;;7.20;67.50;;;;;;5023273;28;20185;-90
2022/02/25 12:36:08;;;;;;;5.70;2.10;;;7.30;67.80;;;;;;5028180;28;20270;-90
2022/02/25 12:38:38;;;;;;;7.90;3.20;;;7.20;69.30;;;;;;4997480;28;20185;-90
2022/02/25 12:41:17;;;;;;;9.07;2.57;;;7.10;69.80;;;;;;5013252;28;20211;-91
2022/02/25 12:43:51;;;;;;;8.27;2.10;;;7.00;70.30;;;;;;5027126;28;20189;-90
2022/02/25 12:46:19;;;;;;;7.13;2.33;;;7.00;70.30;;;;;;5014425;28;20209;-89
2022/02/25 12:48:46;;;;;;;11.90;2.73;;;7.10;71.10;;;;;;5013680;28;20189;-91
2022/02/25 12:51:12;;;;;;;9.53;2.57;;;6.80;73.00;;;;;;4995164;28;20205;-90
2022/02/25 12:53:59;;;;;;;6.17;2.60;;;6.80;75.20;;;;;;5029691;28;20194;-90
2022/02/25 12:56:28;;;;;;;8.83;3.00;;;6.60;76.80;;;;;;5009521;28;20208;-90
2022/02/25 12:59:05;;;;;;;9.00;2.77;;;6.60;77.10;;;;;;5027523;28;20197;-91
2022/02/25 13:01:33;;;;;;;10.50;3.17;;;6.60;79.10;;;;;;5025396;28;20719;-90
2022/02/25 13:04:06;;;;;;;8.03;2.90;;;6.80;77.30;;;;;;5026289;28;20221;-90